createdAt,value
2022-09-01T00:00:22.405Z,14.17
2022-09-01T00:01:22.385Z,14.17
2022-09-01T00:02:22.450Z,14.17
2022-09-01T00:03:22.414Z,14.12
2022-09-01T00:04:22.384Z,14.11
2022-09-01T00:05:22.345Z,14.08
2022-09-01T00:06:22.339Z,14.10
2022-09-01T00:07:22.315Z,14.12
2022-09-01T00:08:22.359Z,14.14
2022-09-01T00:09:22.296Z,14.14
2022-09-01T00:10:22.284Z,14.15
2022-09-01T00:11:22.276Z,14.14
2022-09-01T00:12:22.265Z,14.12
2022-09-01T00:13:22.276Z,14.14
2022-09-01T00:14:29.344Z,14.14
2022-09-01T00:15:23.226Z,14.11
2022-09-01T00:16:22.265Z,14.10
2022-09-01T00:17:22.204Z,14.08
2022-09-01T00:18:22.205Z,14.07
2022-09-01T00:19:22.176Z,14.07
2022-09-01T00:20:22.206Z,14.07
2022-09-01T00:21:22.157Z,14.05
2022-09-01T00:22:22.146Z,14.10
2022-09-01T00:23:22.135Z,14.10
2022-09-01T00:24:22.129Z,14.10
2022-09-01T00:25:22.116Z,14.10
2022-09-01T00:26:22.120Z,14.11
2022-09-01T00:27:22.086Z,14.08
2022-09-01T00:28:23.087Z,14.07
2022-09-01T00:29:23.065Z,14.08
2022-09-01T00:30:22.057Z,14.07
2022-09-01T00:31:22.169Z,14.05
2022-09-01T00:32:22.027Z,14.03
2022-09-01T00:33:22.019Z,14.05
2022-09-01T00:34:22.009Z,14.05
2022-09-01T00:35:21.997Z,14.04
2022-09-01T00:36:21.988Z,14.04
2022-09-01T00:37:21.996Z,14.05
2022-09-01T00:38:21.966Z,14.04
2022-09-01T00:39:21.959Z,14.03
2022-09-01T00:40:21.985Z,14.03
2022-09-01T00:41:21.927Z,13.97
2022-09-01T00:42:21.917Z,13.95
2022-09-01T00:43:21.917Z,13.90
2022-09-01T00:44:21.899Z,13.86
2022-09-01T00:45:21.888Z,13.85
2022-09-01T00:46:21.992Z,13.81
2022-09-01T00:47:21.857Z,13.83
2022-09-01T00:48:21.868Z,13.81
2022-09-01T00:49:21.837Z,13.78
2022-09-01T00:50:21.825Z,13.79
2022-09-01T00:51:21.818Z,13.77
2022-09-01T00:52:21.805Z,13.75
2022-09-01T00:53:21.788Z,13.78
2022-09-01T00:54:21.807Z,13.81
2022-09-01T00:55:21.758Z,13.85
2022-09-01T00:56:21.758Z,13.83
2022-09-01T00:57:21.747Z,13.85
2022-09-01T00:58:22.006Z,13.86
2022-09-01T00:59:21.719Z,13.87
2022-09-01T01:00:21.768Z,13.89
2022-09-01T01:01:21.798Z,13.89
2022-09-01T01:02:21.749Z,13.86
2022-09-01T01:03:21.683Z,13.85
2022-09-01T01:04:21.677Z,13.83
2022-09-01T01:05:21.663Z,13.81
2022-09-01T01:06:21.662Z,13.79
2022-09-01T01:07:21.639Z,13.77
2022-09-01T01:08:21.670Z,13.75
2022-09-01T01:09:21.612Z,13.77
2022-09-01T01:10:21.599Z,13.77
2022-09-01T01:11:21.616Z,13.78
2022-09-01T01:12:21.585Z,13.78
2022-09-01T01:13:21.559Z,13.78
2022-09-01T01:14:21.548Z,13.75
2022-09-01T01:15:21.537Z,13.79
2022-09-01T01:16:21.571Z,13.78
2022-09-01T01:17:21.530Z,13.79
2022-09-01T01:18:23.146Z,13.78
2022-09-01T01:19:21.490Z,13.78
2022-09-01T01:20:21.479Z,13.78
2022-09-01T01:21:21.468Z,13.77
2022-09-01T01:22:21.479Z,13.75
2022-09-01T01:23:21.454Z,13.74
2022-09-01T01:24:21.430Z,13.72
2022-09-01T01:25:21.444Z,13.70
2022-09-01T01:26:21.410Z,13.67
2022-09-01T01:27:21.389Z,13.63
2022-09-01T01:28:21.630Z,13.60
2022-09-01T01:29:21.370Z,13.59
2022-09-01T01:30:21.368Z,13.60
2022-09-01T01:31:21.388Z,13.60
2022-09-01T01:32:21.339Z,13.59
2022-09-01T01:33:21.329Z,13.60
2022-09-01T01:34:21.340Z,13.60
2022-09-01T01:35:21.300Z,13.59
2022-09-01T01:36:21.298Z,13.56
2022-09-01T01:37:21.280Z,13.59
2022-09-01T01:38:21.462Z,13.59
2022-09-01T01:39:21.281Z,13.59
2022-09-01T01:40:21.293Z,13.62
2022-09-01T01:41:21.240Z,13.62
2022-09-01T01:42:21.220Z,13.59
2022-09-01T01:43:21.210Z,13.60
2022-09-01T01:44:21.208Z,13.59
2022-09-01T01:45:21.201Z,13.57
2022-09-01T01:46:21.230Z,13.56
2022-09-01T01:47:21.171Z,13.59
2022-09-01T01:48:21.266Z,13.60
2022-09-01T01:49:21.149Z,13.60
2022-09-01T01:50:21.170Z,13.62
2022-09-01T01:51:21.120Z,13.62
2022-09-01T01:52:21.110Z,13.60
2022-09-01T01:53:22.105Z,13.59
2022-09-01T01:54:21.080Z,13.56
2022-09-01T01:55:21.081Z,13.57
2022-09-01T01:56:21.090Z,13.56
2022-09-01T01:57:21.059Z,13.54
2022-09-01T01:58:21.219Z,13.53
2022-09-01T01:59:21.031Z,13.50
2022-09-01T02:00:30.014Z,13.47
2022-09-01T02:01:22.094Z,13.44
2022-09-01T02:02:21.060Z,13.39
2022-09-01T02:03:20.980Z,13.37
2022-09-01T02:04:20.974Z,13.35
2022-09-01T02:05:20.961Z,13.30
2022-09-01T02:06:20.949Z,13.28
2022-09-01T02:07:20.961Z,13.25
2022-09-01T02:08:21.243Z,13.25
2022-09-01T02:09:20.919Z,13.25
2022-09-01T02:10:20.901Z,13.22
2022-09-01T02:11:20.893Z,13.23
2022-09-01T02:12:20.871Z,13.23
2022-09-01T02:13:20.899Z,13.20
2022-09-01T02:14:20.852Z,13.20
2022-09-01T02:15:20.852Z,13.19
2022-09-01T02:16:20.882Z,13.15
2022-09-01T02:17:20.832Z,13.15
2022-09-01T02:18:20.971Z,13.12
2022-09-01T02:19:20.823Z,13.12
2022-09-01T02:20:20.790Z,13.11
2022-09-01T02:21:20.780Z,13.09
2022-09-01T02:22:20.761Z,13.05
2022-09-01T02:23:20.753Z,13.03
2022-09-01T02:24:20.771Z,13.01
2022-09-01T02:25:20.732Z,12.97
2022-09-01T02:26:20.712Z,12.93
2022-09-01T02:27:20.710Z,12.93
2022-09-01T02:28:20.817Z,12.91
2022-09-01T02:29:20.682Z,12.90
2022-09-01T02:30:20.692Z,12.91
2022-09-01T02:31:20.662Z,12.86
2022-09-01T02:32:20.652Z,12.83
2022-09-01T02:33:20.641Z,12.85
2022-09-01T02:34:20.631Z,12.86
2022-09-01T02:35:20.620Z,12.90
2022-09-01T02:36:20.623Z,12.93
2022-09-01T02:37:20.592Z,12.93
2022-09-01T02:38:20.782Z,12.94
2022-09-01T02:39:20.574Z,12.94
2022-09-01T02:40:20.591Z,12.97
2022-09-01T02:41:20.552Z,12.97
2022-09-01T02:42:20.553Z,12.98
2022-09-01T02:43:20.524Z,12.97
2022-09-01T02:44:20.512Z,13.00
2022-09-01T02:45:20.502Z,13.00
2022-09-01T02:46:20.579Z,12.98
2022-09-01T02:47:20.492Z,13.00
2022-09-01T02:48:20.609Z,13.00
2022-09-01T02:49:20.453Z,13.00
2022-09-01T02:50:20.451Z,13.01
2022-09-01T02:51:20.433Z,13.05
2022-09-01T02:52:20.424Z,13.08
2022-09-01T02:53:20.413Z,13.13
2022-09-01T02:54:20.417Z,13.16
2022-09-01T02:55:20.383Z,13.18
2022-09-01T02:56:20.373Z,13.22
2022-09-01T02:57:21.363Z,13.23
2022-09-01T02:58:20.618Z,13.27
2022-09-01T02:59:20.407Z,13.27
2022-09-01T03:00:20.333Z,13.30
2022-09-01T03:01:20.373Z,13.30
2022-09-01T03:02:20.305Z,13.31
2022-09-01T03:03:20.304Z,13.31
2022-09-01T03:04:20.342Z,13.33
2022-09-01T03:05:20.323Z,13.33
2022-09-01T03:06:20.263Z,13.35
2022-09-01T03:07:20.253Z,13.35
2022-09-01T03:08:20.345Z,13.39
2022-09-01T03:09:20.224Z,13.39
2022-09-01T03:10:20.214Z,13.42
2022-09-01T03:11:20.224Z,13.42
2022-09-01T03:12:20.193Z,13.46
2022-09-01T03:13:20.183Z,13.46
2022-09-01T03:14:20.164Z,13.47
2022-09-01T03:15:20.164Z,13.49
2022-09-01T03:16:20.213Z,13.52
2022-09-01T03:17:20.134Z,13.54
2022-09-01T03:18:20.280Z,13.54
2022-09-01T03:19:20.113Z,13.56
2022-09-01T03:20:20.104Z,13.59
2022-09-01T03:21:20.108Z,13.60
2022-09-01T03:22:20.103Z,13.63
2022-09-01T03:23:20.079Z,13.65
2022-09-01T03:24:20.056Z,13.67
2022-09-01T03:25:20.053Z,13.70
2022-09-01T03:26:20.033Z,13.71
2022-09-01T03:27:20.023Z,13.74
2022-09-01T03:28:20.222Z,13.77
2022-09-01T03:29:20.003Z,13.78
2022-09-01T03:30:19.993Z,13.79
2022-09-01T03:31:20.132Z,13.79
2022-09-01T03:32:19.961Z,13.83
2022-09-01T03:33:19.983Z,13.85
2022-09-01T03:34:19.935Z,13.86
2022-09-01T03:35:19.933Z,13.87
2022-09-01T03:36:19.916Z,13.89
2022-09-01T03:37:19.915Z,13.89
2022-09-01T03:38:19.996Z,13.90
2022-09-01T03:39:19.914Z,13.92
2022-09-01T03:40:19.941Z,13.92
2022-09-01T03:41:19.854Z,13.93
2022-09-01T03:42:19.845Z,13.93
2022-09-01T03:43:19.844Z,13.92
2022-09-01T03:44:19.822Z,13.92
2022-09-01T03:45:19.852Z,13.93
2022-09-01T03:46:19.863Z,13.95
2022-09-01T03:47:19.794Z,13.96
2022-09-01T03:48:19.928Z,13.96
2022-09-01T03:49:19.765Z,13.95
2022-09-01T03:50:19.754Z,13.95
2022-09-01T03:51:19.783Z,13.95
2022-09-01T03:52:19.725Z,13.93
2022-09-01T03:53:19.733Z,13.93
2022-09-01T03:54:19.718Z,13.92
2022-09-01T03:55:19.705Z,13.92
2022-09-01T03:56:19.684Z,13.89
2022-09-01T03:57:19.715Z,13.87
2022-09-01T03:58:19.692Z,13.85
2022-09-01T03:59:19.656Z,13.81
2022-09-01T04:00:19.636Z,13.78
2022-09-01T04:01:19.677Z,13.72
2022-09-01T04:02:19.645Z,13.72
2022-09-01T04:03:19.625Z,13.71
2022-09-01T04:04:20.596Z,13.71
2022-09-01T04:05:19.586Z,13.71
2022-09-01T04:06:19.576Z,13.68
2022-09-01T04:07:19.556Z,13.65
2022-09-01T04:08:19.726Z,13.67
2022-09-01T04:09:19.536Z,13.65
2022-09-01T04:10:19.526Z,13.65
2022-09-01T04:11:19.516Z,13.65
2022-09-01T04:12:19.498Z,13.65
2022-09-01T04:13:19.486Z,13.65
2022-09-01T04:14:19.507Z,13.65
2022-09-01T04:15:19.475Z,13.65
2022-09-01T04:16:19.520Z,13.70
2022-09-01T04:17:19.463Z,13.70
2022-09-01T04:18:19.537Z,13.71
2022-09-01T04:19:19.436Z,13.74
2022-09-01T04:20:19.437Z,13.75
2022-09-01T04:21:19.417Z,13.77
2022-09-01T04:22:19.386Z,13.77
2022-09-01T04:23:19.376Z,13.78
2022-09-01T04:24:19.394Z,13.78
2022-09-01T04:25:19.367Z,13.79
2022-09-01T04:26:19.359Z,13.78
2022-09-01T04:27:19.336Z,13.77
2022-09-01T04:28:19.465Z,13.77
2022-09-01T04:29:19.355Z,13.78
2022-09-01T04:30:19.289Z,13.79
2022-09-01T04:31:19.401Z,13.78
2022-09-01T04:32:19.298Z,13.77
2022-09-01T04:33:19.268Z,13.77
2022-09-01T04:34:19.256Z,13.77
2022-09-01T04:35:19.237Z,13.77
2022-09-01T04:36:19.219Z,13.75
2022-09-01T04:37:19.217Z,13.75
2022-09-01T04:38:19.298Z,13.74
2022-09-01T04:39:19.196Z,13.74
2022-09-01T04:40:19.226Z,13.74
2022-09-01T04:41:19.168Z,13.71
2022-09-01T04:42:19.157Z,13.72
2022-09-01T04:43:19.148Z,13.74
2022-09-01T04:44:19.452Z,13.74
2022-09-01T04:45:20.678Z,13.75
2022-09-01T04:46:19.155Z,13.78
2022-09-01T04:47:19.098Z,13.79
2022-09-01T04:48:19.212Z,13.83
2022-09-01T04:49:19.089Z,13.83
2022-09-01T04:50:19.077Z,13.81
2022-09-01T04:51:19.056Z,13.85
2022-09-01T04:52:19.038Z,13.86
2022-09-01T04:53:19.028Z,13.89
2022-09-01T04:54:19.018Z,13.89
2022-09-01T04:55:19.008Z,13.93
2022-09-01T04:56:19.019Z,13.95
2022-09-01T04:57:18.992Z,13.99
2022-09-01T04:58:18.975Z,13.99
2022-09-01T04:59:18.969Z,14.05
2022-09-01T05:00:18.959Z,14.07
2022-09-01T05:01:18.990Z,14.10
2022-09-01T05:02:19.008Z,14.11
2022-09-01T05:03:18.920Z,14.12
2022-09-01T05:04:18.909Z,14.15
2022-09-01T05:05:18.900Z,14.15
2022-09-01T05:06:18.891Z,14.17
2022-09-01T05:07:18.960Z,14.20
2022-09-01T05:08:23.875Z,14.22
2022-09-01T05:09:19.849Z,14.23
2022-09-01T05:10:18.829Z,14.26
2022-09-01T05:11:18.831Z,14.28
2022-09-01T05:12:18.819Z,14.29
2022-09-01T05:13:18.831Z,14.33
2022-09-01T05:14:18.801Z,14.36
2022-09-01T05:15:18.779Z,14.37
2022-09-01T05:16:22.666Z,14.43
2022-09-01T05:17:19.757Z,14.44
2022-09-01T05:18:18.853Z,14.47
2022-09-01T05:19:18.758Z,14.48
2022-09-01T05:20:18.719Z,14.51
2022-09-01T05:21:18.710Z,14.54
2022-09-01T05:22:18.708Z,14.55
2022-09-01T05:23:18.688Z,14.55
2022-09-01T05:24:18.699Z,14.59
2022-09-01T05:25:18.701Z,14.60
2022-09-01T05:26:18.652Z,14.63
2022-09-01T05:27:18.648Z,14.63
2022-09-01T05:28:18.899Z,14.65
2022-09-01T05:29:18.620Z,14.65
2022-09-01T05:30:18.610Z,14.68
2022-09-01T05:31:18.685Z,14.69
2022-09-01T05:32:18.590Z,14.70
2022-09-01T05:33:21.673Z,14.72
2022-09-01T05:34:18.560Z,14.73
2022-09-01T05:35:18.552Z,14.77
2022-09-01T05:36:18.550Z,14.78
2022-09-01T05:37:18.550Z,14.79
2022-09-01T05:38:18.635Z,14.81
2022-09-01T05:39:18.501Z,14.81
2022-09-01T05:40:18.532Z,14.84
2022-09-01T05:41:18.482Z,14.85
2022-09-01T05:42:18.490Z,14.86
2022-09-01T05:43:18.472Z,14.92
2022-09-01T05:44:18.452Z,14.94
2022-09-01T05:45:18.442Z,14.99
2022-09-01T05:46:18.437Z,15.00
2022-09-01T05:47:20.870Z,15.00
2022-09-01T05:48:18.481Z,15.06
2022-09-01T05:49:18.394Z,15.09
2022-09-01T05:50:18.382Z,15.10
2022-09-01T05:51:42.847Z,15.11
2022-09-01T05:52:19.352Z,15.14
2022-09-01T05:53:18.373Z,15.11
2022-09-01T05:54:18.330Z,15.17
2022-09-01T05:55:18.331Z,15.21
2022-09-01T05:56:18.313Z,15.21
2022-09-01T05:57:33.685Z,15.21
2022-09-01T05:58:19.475Z,15.22
2022-09-01T05:59:26.183Z,15.24
2022-09-01T06:01:28.217Z,15.27
2022-09-01T06:02:28.228Z,15.28
2022-09-01T06:03:28.207Z,15.27
2022-09-01T06:04:28.141Z,15.27
2022-09-01T06:05:28.121Z,15.29
2022-09-01T06:06:28.111Z,15.31
2022-09-01T06:07:28.101Z,15.35
2022-09-01T06:08:28.081Z,15.36
2022-09-01T06:09:28.101Z,15.35
2022-09-01T06:10:28.062Z,15.36
2022-09-01T06:11:28.052Z,15.37
2022-09-01T06:12:28.053Z,15.36
2022-09-01T06:13:28.041Z,15.36
2022-09-01T06:14:28.014Z,15.36
2022-09-01T06:15:28.032Z,15.37
2022-09-01T06:16:28.022Z,15.36
2022-09-01T06:17:27.982Z,15.35
2022-09-01T06:18:27.974Z,15.37
2022-09-01T06:19:27.974Z,15.40
2022-09-01T06:20:27.945Z,15.43
2022-09-01T06:21:27.961Z,15.46
2022-09-01T06:22:27.922Z,15.46
2022-09-01T06:23:27.921Z,15.51
2022-09-01T06:24:27.903Z,15.57
2022-09-01T06:25:27.893Z,15.59
2022-09-01T06:26:27.906Z,15.65
2022-09-01T06:27:27.871Z,15.72
2022-09-01T06:28:27.861Z,15.76
2022-09-01T06:29:27.845Z,15.79
2022-09-01T06:30:27.833Z,15.84
2022-09-01T06:31:27.867Z,15.88
2022-09-01T06:32:27.833Z,15.91
2022-09-01T06:33:27.801Z,15.91
2022-09-01T06:34:27.783Z,15.90
2022-09-01T06:35:27.782Z,15.95
2022-09-01T06:36:30.100Z,16.02
2022-09-01T06:37:27.754Z,16.08
2022-09-01T06:38:27.755Z,16.10
2022-09-01T06:39:27.735Z,16.13
2022-09-01T06:40:27.781Z,16.12
2022-09-01T06:41:27.714Z,16.10
2022-09-01T06:42:27.694Z,16.12
2022-09-01T06:43:27.705Z,16.15
2022-09-01T06:44:27.675Z,16.20
2022-09-01T06:45:27.664Z,16.23
2022-09-01T06:46:27.700Z,16.20
2022-09-01T06:47:27.643Z,16.21
2022-09-01T06:48:27.626Z,16.20
2022-09-01T06:49:27.626Z,16.20
2022-09-01T06:51:28.594Z,16.24
2022-09-01T06:52:27.905Z,16.26
2022-09-01T06:53:35.427Z,16.28
2022-09-01T06:54:28.576Z,16.28
2022-09-01T06:55:27.565Z,16.26
2022-09-01T06:56:29.157Z,16.23
2022-09-01T06:58:28.516Z,16.24
2022-09-01T06:59:32.555Z,16.24
2022-09-01T07:00:28.506Z,16.26
2022-09-01T07:01:27.635Z,16.28
2022-09-01T07:02:27.540Z,16.26
2022-09-01T07:03:27.459Z,16.20
2022-09-01T07:04:27.437Z,16.16
2022-09-01T07:08:04.659Z,16.10
2022-09-01T07:08:28.396Z,16.05
2022-09-01T07:09:38.566Z,16.08
2022-09-01T07:10:28.367Z,16.08
2022-09-01T07:12:28.347Z,16.09
2022-09-01T07:13:27.337Z,16.10
2022-09-01T07:14:27.327Z,16.12
2022-09-01T07:16:31.875Z,16.15
2022-09-01T07:16:32.859Z,16.16
2022-09-01T07:17:28.308Z,16.16
2022-09-01T07:18:27.358Z,16.17
2022-09-01T07:19:48.386Z,16.17
2022-09-01T07:20:28.334Z,16.23
2022-09-01T07:21:41.695Z,16.26
2022-09-01T07:22:36.081Z,16.29
2022-09-01T07:23:45.976Z,16.33
2022-09-01T07:24:31.708Z,16.38
2022-09-01T07:25:35.768Z,16.42
2022-09-01T07:26:28.188Z,16.43
2022-09-01T07:27:27.178Z,16.46
2022-09-01T07:28:36.143Z,16.42
2022-09-01T07:29:28.171Z,16.39
2022-09-01T07:30:27.139Z,16.42
2022-09-01T07:31:50.009Z,16.46
2022-09-01T07:32:44.073Z,16.50
2022-09-01T07:34:40.067Z,16.56
2022-09-01T07:35:28.090Z,16.56
2022-09-01T07:36:27.244Z,16.54
2022-09-01T07:38:49.780Z,16.58
2022-09-01T07:42:59.167Z,16.66
2022-09-01T07:43:31.072Z,16.87
2022-09-01T07:44:27.983Z,16.91
2022-09-01T07:45:27.902Z,16.94
2022-09-01T07:46:37.799Z,16.93
2022-09-01T07:47:52.601Z,16.96
2022-09-01T07:49:01.332Z,17.06
2022-09-01T07:49:30.077Z,17.11
2022-09-01T07:50:40.312Z,17.16
2022-09-01T07:51:36.794Z,17.26
2022-09-01T07:52:27.881Z,17.36
2022-09-01T07:53:26.878Z,17.45
2022-09-01T07:54:26.860Z,17.52
2022-09-01T07:55:26.852Z,17.60
2022-09-01T07:56:26.873Z,17.68
2022-09-01T07:57:26.832Z,17.72
2022-09-01T07:58:26.821Z,17.72
2022-09-01T07:59:26.810Z,17.74
2022-09-01T08:00:31.025Z,17.78
2022-09-01T08:01:27.840Z,17.78
2022-09-01T08:02:26.838Z,17.80
2022-09-01T08:03:26.761Z,17.68
2022-09-01T08:04:26.750Z,17.68
2022-09-01T08:05:26.732Z,17.74
2022-09-01T08:06:27.308Z,17.89
2022-09-01T08:07:26.714Z,17.95
2022-09-01T08:08:29.332Z,18.01
2022-09-01T08:09:37.251Z,18.11
2022-09-01T08:10:27.680Z,18.18
2022-09-01T08:11:58.278Z,18.10
2022-09-01T08:12:29.222Z,18.11
2022-09-01T08:13:26.652Z,18.19
2022-09-01T08:14:26.662Z,18.23
2022-09-01T08:16:06.537Z,18.31
2022-09-01T08:16:27.932Z,18.37
2022-09-01T08:17:50.512Z,18.50
2022-09-01T08:18:27.618Z,18.52
2022-09-01T08:19:26.583Z,18.52
2022-09-01T08:20:26.584Z,18.65
2022-09-01T08:21:26.563Z,18.77
2022-09-01T08:22:26.545Z,18.74
2022-09-01T08:23:26.542Z,18.86
2022-09-01T08:24:26.516Z,18.90
2022-09-01T08:25:26.534Z,18.98
2022-09-01T08:26:26.496Z,19.11
2022-09-01T08:27:26.492Z,19.29
2022-09-01T08:28:27.040Z,19.37
2022-09-01T08:29:26.488Z,19.44
2022-09-01T08:30:26.456Z,19.59
2022-09-01T08:31:30.774Z,19.76
2022-09-01T08:32:26.426Z,19.92
2022-09-01T08:33:26.421Z,19.91
2022-09-01T08:34:26.406Z,19.96
2022-09-01T08:35:26.989Z,20.13
2022-09-01T08:36:26.414Z,20.21
2022-09-01T08:37:26.404Z,20.31
2022-09-01T08:38:26.365Z,20.43
2022-09-01T08:39:26.355Z,20.55
2022-09-01T08:40:26.382Z,20.62
2022-09-01T08:41:28.646Z,20.70
2022-09-01T08:42:27.357Z,20.80
2022-09-01T08:43:27.309Z,20.88
2022-09-01T08:44:26.298Z,21.02
2022-09-01T08:45:26.288Z,21.02
2022-09-01T08:46:26.414Z,21.09
2022-09-01T08:47:39.272Z,21.24
2022-09-01T08:49:18.333Z,21.07
2022-09-01T08:49:27.958Z,20.90
2022-09-01T08:50:26.228Z,20.97
2022-09-01T08:51:26.220Z,20.93
2022-09-01T08:52:26.200Z,20.99
2022-09-01T08:53:26.199Z,21.18
2022-09-01T08:54:29.691Z,21.91
2022-09-01T08:55:27.174Z,22.35
2022-09-01T08:56:26.160Z,22.38
2022-09-01T08:57:26.150Z,22.44
2022-09-01T08:58:26.140Z,22.33
2022-09-01T08:59:26.129Z,22.39
2022-09-01T09:00:26.141Z,22.53
2022-09-01T09:01:26.171Z,22.51
2022-09-01T09:02:26.187Z,22.48
2022-09-01T09:03:26.082Z,22.23
2022-09-01T09:04:26.072Z,22.60
2022-09-01T09:05:26.062Z,22.70
2022-09-01T09:06:26.081Z,22.83
2022-09-01T09:07:26.033Z,22.76
2022-09-01T09:08:26.513Z,22.63
2022-09-01T09:09:33.536Z,22.48
2022-09-01T09:10:27.013Z,22.33
2022-09-01T09:11:25.992Z,22.26
2022-09-01T09:12:26.003Z,22.41
2022-09-01T09:13:25.971Z,22.43
2022-09-01T09:14:25.963Z,22.60
2022-09-01T09:15:25.989Z,22.60
2022-09-01T09:16:26.052Z,22.70
2022-09-01T09:17:25.924Z,22.93
2022-09-01T09:18:38.792Z,22.69
2022-09-01T09:19:26.902Z,22.73
2022-09-01T09:20:25.895Z,22.76
2022-09-01T09:21:25.875Z,22.72
2022-09-01T09:22:25.875Z,22.87
2022-09-01T09:23:25.922Z,23.08
2022-09-01T09:24:25.866Z,23.21
2022-09-01T09:25:25.835Z,23.44
2022-09-01T09:26:25.826Z,23.69
2022-09-01T09:27:26.914Z,24.05
2022-09-01T09:28:25.870Z,24.74
2022-09-01T09:29:25.787Z,25.51
2022-09-01T09:30:26.579Z,26.10
2022-09-01T09:31:25.850Z,26.41
2022-09-01T09:32:44.897Z,26.34
2022-09-01T09:33:48.641Z,26.65
2022-09-01T09:34:26.737Z,26.85
2022-09-01T09:35:25.719Z,26.93
2022-09-01T09:36:25.753Z,26.56
2022-09-01T09:37:25.699Z,26.60
2022-09-01T09:38:25.690Z,26.62
2022-09-01T09:39:25.679Z,26.45
2022-09-01T09:40:25.705Z,26.37
2022-09-01T09:41:27.259Z,26.21
2022-09-01T09:42:29.859Z,26.33
2022-09-01T09:43:28.170Z,26.40
2022-09-01T09:44:25.620Z,26.47
2022-09-01T09:45:25.610Z,26.53
2022-09-01T09:46:25.790Z,26.23
2022-09-01T09:47:42.677Z,26.13
2022-09-01T09:48:26.580Z,25.91
2022-09-01T09:49:36.685Z,25.93
2022-09-01T09:50:26.554Z,26.05
2022-09-01T09:51:25.681Z,26.16
2022-09-01T09:52:25.542Z,26.22
2022-09-01T09:53:25.536Z,26.23
2022-09-01T09:54:26.254Z,26.09
2022-09-01T09:55:25.494Z,25.96
2022-09-01T09:56:25.491Z,25.91
2022-09-01T09:57:25.474Z,25.75
2022-09-01T09:58:25.492Z,24.96
2022-09-01T09:59:45.808Z,24.30
2022-09-01T10:00:26.528Z,23.73
2022-09-01T10:01:25.489Z,23.39
2022-09-01T10:02:27.850Z,23.32
2022-09-01T10:03:29.079Z,23.15
2022-09-01T10:04:25.461Z,22.99
2022-09-01T10:05:25.384Z,22.87
2022-09-01T10:06:25.376Z,22.78
2022-09-01T10:07:25.356Z,22.81
2022-09-01T10:08:25.356Z,22.99
2022-09-01T10:09:25.366Z,22.96
2022-09-01T10:10:25.467Z,22.81
2022-09-01T10:11:27.956Z,22.84
2022-09-01T10:12:25.307Z,22.90
2022-09-01T10:13:25.942Z,22.78
2022-09-01T10:14:35.481Z,22.78
2022-09-01T10:15:26.375Z,22.78
2022-09-01T10:16:27.683Z,22.98
2022-09-01T10:17:26.107Z,23.23
2022-09-01T10:18:32.153Z,23.50
2022-09-01T10:19:26.235Z,23.81
2022-09-01T10:20:25.218Z,23.93
2022-09-01T10:21:25.254Z,23.92
2022-09-01T10:22:25.198Z,23.88
2022-09-01T10:23:27.394Z,23.84
2022-09-01T10:24:27.398Z,23.96
2022-09-01T10:25:25.183Z,24.06
2022-09-01T10:26:25.160Z,24.10
2022-09-01T10:27:25.149Z,23.96
2022-09-01T10:28:25.281Z,23.86
2022-09-01T10:29:25.110Z,23.66
2022-09-01T10:30:25.201Z,23.59
2022-09-01T10:31:29.481Z,23.37
2022-09-01T10:32:38.313Z,23.34
2022-09-01T10:33:26.078Z,23.36
2022-09-01T10:34:25.873Z,23.43
2022-09-01T10:35:25.057Z,23.48
2022-09-01T10:36:25.041Z,23.56
2022-09-01T10:37:25.284Z,23.63
2022-09-01T10:38:25.043Z,23.69
2022-09-01T10:39:30.530Z,23.77
2022-09-01T10:40:30.851Z,23.78
2022-09-01T10:41:26.029Z,23.81
2022-09-01T10:42:24.972Z,23.68
2022-09-01T10:43:24.952Z,23.59
2022-09-01T10:44:25.012Z,23.69
2022-09-01T10:45:25.176Z,23.87
2022-09-01T10:46:26.147Z,23.83
2022-09-01T10:47:24.942Z,23.88
2022-09-01T10:48:31.918Z,23.87
2022-09-01T10:49:27.788Z,24.01
2022-09-01T10:50:24.912Z,23.95
2022-09-01T10:51:29.696Z,23.98
2022-09-01T10:52:28.701Z,23.96
2022-09-01T10:53:26.951Z,23.99
2022-09-01T10:54:24.867Z,23.96
2022-09-01T10:55:25.312Z,23.93
2022-09-01T10:56:29.469Z,23.93
2022-09-01T10:57:27.025Z,23.92
2022-09-01T10:59:37.614Z,24.08
2022-09-01T11:00:36.033Z,24.24
2022-09-01T11:01:41.282Z,24.33
2022-09-01T11:02:28.874Z,24.36
2022-09-01T11:03:32.680Z,24.39
2022-09-01T11:04:25.793Z,24.35
2022-09-01T11:05:24.708Z,24.16
2022-09-01T11:06:32.916Z,24.11
2022-09-01T11:07:38.803Z,24.14
2022-09-01T11:08:25.784Z,24.23
2022-09-01T11:09:24.697Z,24.26
2022-09-01T11:10:32.034Z,24.32
2022-09-01T11:11:25.658Z,24.38
2022-09-01T11:12:29.197Z,24.47
2022-09-01T11:13:25.799Z,24.63
2022-09-01T11:14:24.619Z,24.74
2022-09-01T11:15:26.711Z,24.74
2022-09-01T11:16:46.435Z,24.61
2022-09-01T11:17:25.744Z,24.70
2022-09-01T11:18:24.569Z,24.80
2022-09-01T11:19:24.562Z,24.81
2022-09-01T11:20:24.541Z,24.95
2022-09-01T11:21:25.780Z,24.98
2022-09-01T11:22:26.420Z,25.06
2022-09-01T11:23:24.964Z,25.04
2022-09-01T11:24:24.509Z,25.14
2022-09-01T11:25:24.482Z,25.21
2022-09-01T11:26:24.480Z,25.17
2022-09-01T11:27:24.460Z,25.35
2022-09-01T11:28:24.489Z,25.55
2022-09-01T11:29:24.454Z,25.73
2022-09-01T11:30:24.437Z,25.87
2022-09-01T11:31:24.489Z,26.00
2022-09-01T11:32:24.411Z,26.03
2022-09-01T11:33:24.392Z,25.96
2022-09-01T11:34:24.404Z,25.90
2022-09-01T11:35:24.375Z,25.81
2022-09-01T11:36:24.362Z,25.80
2022-09-01T11:37:27.603Z,25.81
2022-09-01T11:38:24.344Z,25.65
2022-09-01T11:39:24.403Z,25.51
2022-09-01T11:40:24.375Z,25.43
2022-09-01T11:41:24.321Z,25.58
2022-09-01T11:42:24.295Z,25.70
2022-09-01T11:43:24.283Z,25.63
2022-09-01T11:44:24.274Z,25.58
2022-09-01T11:45:24.284Z,25.72
2022-09-01T11:46:24.305Z,25.83
2022-09-01T11:47:24.234Z,25.96
2022-09-01T11:48:24.225Z,26.07
2022-09-01T11:49:24.235Z,26.29
2022-09-01T11:50:24.275Z,26.53
2022-09-01T11:51:24.546Z,26.70
2022-09-01T11:52:24.183Z,26.68
2022-09-01T11:53:24.175Z,26.55
2022-09-01T11:54:24.156Z,26.36
2022-09-01T11:55:24.146Z,26.25
2022-09-01T11:56:24.144Z,26.22
2022-09-01T11:57:24.140Z,26.18
2022-09-01T11:58:24.117Z,26.18
2022-09-01T11:59:24.100Z,26.23
2022-09-01T12:00:24.087Z,26.28
2022-09-01T12:01:31.122Z,26.36
2022-09-01T12:02:24.102Z,26.36
2022-09-01T12:03:27.160Z,26.34
2022-09-01T12:04:24.062Z,26.31
2022-09-01T12:05:24.053Z,26.36
2022-09-01T12:06:24.024Z,26.43
2022-09-01T12:07:24.016Z,26.62
2022-09-01T12:08:24.362Z,26.78
2022-09-01T12:09:24.005Z,26.84
2022-09-01T12:10:23.975Z,26.85
2022-09-01T12:11:23.966Z,26.90
2022-09-01T12:12:23.967Z,26.84
2022-09-01T12:13:23.943Z,26.77
2022-09-01T12:14:23.934Z,26.78
2022-09-01T12:15:23.936Z,26.85
2022-09-01T12:16:23.981Z,26.81
2022-09-01T12:17:23.896Z,26.60
2022-09-01T12:18:23.886Z,26.53
2022-09-01T12:19:23.876Z,26.62
2022-09-01T12:20:28.653Z,26.73
2022-09-01T12:21:24.886Z,26.73
2022-09-01T12:22:23.845Z,26.58
2022-09-01T12:23:23.830Z,26.38
2022-09-01T12:24:23.829Z,26.29
2022-09-01T12:25:23.816Z,26.33
2022-09-01T12:26:23.885Z,26.22
2022-09-01T12:27:23.817Z,26.09
2022-09-01T12:28:23.781Z,26.10
2022-09-01T12:29:23.770Z,26.23
2022-09-01T12:30:23.757Z,26.33
2022-09-01T12:31:23.861Z,26.41
2022-09-01T12:32:23.758Z,26.47
2022-09-01T12:33:24.224Z,26.60
2022-09-01T12:34:23.727Z,26.63
2022-09-01T12:35:23.700Z,26.51
2022-09-01T12:36:23.699Z,26.48
2022-09-01T12:37:23.671Z,26.68
2022-09-01T12:38:23.766Z,26.75
2022-09-01T12:39:23.653Z,26.88
2022-09-01T12:40:23.680Z,27.05
2022-09-01T12:42:23.623Z,27.07
2022-09-01T12:43:23.610Z,27.08
2022-09-01T12:44:23.622Z,27.03
2022-09-01T12:45:23.594Z,27.07
2022-09-01T12:46:23.572Z,27.05
2022-09-01T12:47:23.554Z,27.02
2022-09-01T12:48:23.552Z,26.97
2022-09-01T12:49:23.545Z,26.96
2022-09-01T12:50:23.552Z,26.95
2022-09-01T12:51:26.512Z,26.90
2022-09-01T12:52:23.504Z,26.80
2022-09-01T12:53:23.752Z,26.55
2022-09-01T12:54:23.485Z,26.26
2022-09-01T12:55:47.955Z,26.13
2022-09-01T12:56:24.519Z,26.05
2022-09-01T12:57:23.446Z,25.90
2022-09-01T12:58:23.445Z,25.80
2022-09-01T12:59:26.184Z,25.66
2022-09-01T13:00:24.421Z,25.68
2022-09-01T13:01:23.454Z,25.59
2022-09-01T13:02:23.516Z,25.62
2022-09-01T13:03:23.705Z,25.81
2022-09-01T13:04:23.385Z,25.84
2022-09-01T13:05:28.443Z,25.95